createdAt,value
2019-05-05T00:00:14.563Z,3.10
2019-05-05T00:02:44.822Z,3.20
2019-05-05T00:05:11.935Z,3.30
2019-05-05T00:07:19.604Z,3.20
2019-05-05T00:09:25.225Z,3.20
2019-05-05T00:11:57.488Z,3.10
2019-05-05T00:14:15.241Z,2.90
2019-05-05T00:16:27.067Z,2.80
2019-05-05T00:18:31.487Z,2.90
2019-05-05T00:20:35.406Z,3.00
2019-05-05T00:22:39.497Z,3.10
2019-05-05T00:24:44.382Z,3.00
2019-05-05T00:26:48.525Z,3.00
2019-05-05T00:28:52.537Z,2.90
2019-05-05T00:30:56.452Z,3.00
2019-05-05T00:33:00.354Z,3.00
2019-05-05T00:35:04.920Z,2.90
2019-05-05T00:37:08.873Z,2.90
2019-05-05T00:39:14.875Z,2.90
2019-05-05T00:41:18.628Z,2.90
2019-05-05T00:43:25.099Z,2.70
2019-05-05T00:45:29.787Z,2.90
2019-05-05T00:47:41.640Z,2.80
2019-05-05T00:49:49.432Z,2.80
2019-05-05T00:51:54.646Z,2.80
2019-05-05T00:53:58.675Z,2.90
2019-05-05T00:56:04.965Z,3.00
2019-05-05T00:58:08.404Z,3.10
2019-05-05T01:00:44.256Z,3.10
2019-05-05T01:02:49.847Z,3.20
2019-05-05T01:05:04.532Z,3.20
2019-05-05T01:07:08.651Z,3.00
2019-05-05T01:09:16.531Z,3.10
2019-05-05T01:11:20.763Z,3.10
2019-05-05T01:13:24.709Z,2.80
2019-05-05T01:15:29.024Z,2.90
2019-05-05T01:17:34.510Z,2.80
2019-05-05T01:19:38.543Z,2.60
2019-05-05T01:21:42.659Z,2.60
2019-05-05T01:23:46.564Z,2.70
2019-05-05T01:25:50.610Z,2.90
2019-05-05T01:27:55.587Z,2.80
2019-05-05T01:30:00.550Z,2.60
2019-05-05T01:32:06.564Z,2.50
2019-05-05T01:34:16.892Z,2.50
2019-05-05T01:36:20.796Z,2.50
2019-05-05T01:38:44.739Z,2.30
2019-05-05T01:41:14.740Z,2.60
2019-05-05T01:43:18.961Z,2.50
2019-05-05T01:45:24.192Z,2.60
2019-05-05T01:47:28.183Z,2.70
2019-05-05T01:49:32.143Z,2.70
2019-05-05T01:51:36.122Z,2.60
2019-05-05T01:53:40.167Z,2.50
2019-05-05T01:55:45.223Z,2.60
2019-05-05T01:57:49.891Z,2.50
2019-05-05T01:59:55.410Z,2.40
2019-05-05T02:01:59.539Z,2.40
2019-05-05T02:06:21.487Z,2.30
2019-05-05T02:08:25.481Z,2.40
2019-05-05T02:10:29.492Z,2.50
2019-05-05T02:12:35.311Z,2.60
2019-05-05T02:14:39.491Z,2.50
2019-05-05T02:16:45.212Z,2.50
2019-05-05T02:18:49.504Z,2.40
2019-05-05T02:21:07.323Z,2.40
2019-05-05T02:23:15.042Z,2.30
2019-05-05T02:25:18.817Z,2.30
2019-05-05T02:27:25.001Z,2.30
2019-05-05T02:29:40.634Z,2.30
2019-05-05T02:32:05.858Z,2.30
2019-05-05T02:34:10.082Z,2.30
2019-05-05T02:36:15.899Z,2.40
2019-05-05T02:38:20.188Z,2.30
2019-05-05T02:40:24.706Z,2.40
2019-05-05T02:42:29.364Z,2.40
2019-05-05T02:44:35.201Z,2.40
2019-05-05T02:46:58.304Z,2.30
2019-05-05T02:49:05.453Z,2.20
2019-05-05T02:51:10.756Z,2.30
2019-05-05T02:53:14.764Z,2.30
2019-05-05T02:55:20.687Z,2.30
2019-05-05T02:57:25.295Z,2.20
2019-05-05T02:59:46.393Z,2.10
2019-05-05T03:01:53.888Z,2.10
2019-05-05T03:03:59.451Z,2.10
2019-05-05T03:06:04.425Z,2.00
2019-05-05T03:08:08.942Z,2.00
2019-05-05T03:10:14.079Z,2.10
2019-05-05T03:12:20.943Z,2.10
2019-05-05T03:14:26.745Z,2.20
2019-05-05T03:16:36.618Z,2.10
2019-05-05T03:18:41.218Z,2.10
2019-05-05T03:20:45.223Z,2.20
2019-05-05T03:22:49.307Z,2.20
2019-05-05T03:24:54.152Z,2.20
2019-05-05T03:26:58.411Z,2.10
2019-05-05T03:29:04.786Z,2.10
2019-05-05T03:31:09.669Z,2.10
2019-05-05T03:33:15.916Z,2.00
2019-05-05T03:35:19.559Z,2.00
2019-05-05T03:37:25.014Z,2.00
2019-05-05T03:39:31.363Z,1.90
2019-05-05T03:41:41.084Z,1.90
2019-05-05T03:44:05.140Z,2.00
2019-05-05T03:46:09.807Z,2.00
2019-05-05T03:48:14.223Z,1.80
2019-05-05T03:50:18.614Z,2.00
2019-05-05T03:52:24.497Z,1.80
2019-05-05T03:54:28.608Z,1.80
2019-05-05T03:56:34.762Z,1.90
2019-05-05T03:58:38.867Z,1.90
2019-05-05T04:01:15.651Z,2.00
2019-05-05T04:03:19.521Z,2.00
2019-05-05T04:05:44.390Z,2.00
2019-05-05T04:07:48.675Z,2.00
2019-05-05T04:09:54.289Z,2.00
2019-05-05T04:11:58.425Z,2.00
2019-05-05T04:14:03.676Z,2.10
2019-05-05T04:16:17.095Z,2.10
2019-05-05T04:18:24.911Z,2.30
2019-05-05T04:20:40.287Z,2.20
2019-05-05T04:22:44.145Z,2.10
2019-05-05T04:24:48.815Z,2.20
2019-05-05T04:26:54.520Z,2.30
2019-05-05T04:28:58.379Z,2.20
2019-05-05T04:31:04.159Z,2.20
2019-05-05T04:33:07.961Z,2.20
2019-05-05T04:35:13.919Z,2.20
2019-05-05T04:37:17.491Z,2.30
2019-05-05T04:39:23.134Z,2.30
2019-05-05T04:41:26.884Z,2.40
2019-05-05T04:43:30.853Z,2.40
2019-05-05T04:45:34.900Z,2.40
2019-05-05T04:47:43.494Z,2.50
2019-05-05T04:49:53.795Z,2.60
2019-05-05T04:51:59.057Z,2.60
2019-05-05T04:54:08.831Z,2.60
2019-05-05T04:56:14.112Z,2.70
2019-05-05T04:58:18.164Z,2.80
2019-05-05T05:00:24.010Z,2.90
2019-05-05T05:02:46.691Z,3.00
2019-05-05T05:04:56.997Z,3.00
2019-05-05T05:07:00.919Z,3.20
2019-05-05T05:09:06.143Z,3.20
2019-05-05T05:11:10.041Z,3.30
2019-05-05T05:13:14.004Z,3.40
2019-05-05T05:15:17.995Z,3.40
2019-05-05T05:17:33.720Z,3.50
2019-05-05T05:19:37.471Z,3.50
2019-05-05T05:21:43.496Z,3.60
2019-05-05T05:23:47.111Z,3.70
2019-05-05T05:25:50.935Z,3.80
2019-05-05T05:27:54.839Z,3.80
2019-05-05T05:29:58.683Z,3.90
2019-05-05T05:32:04.172Z,4.00
2019-05-05T05:34:08.363Z,4.00
2019-05-05T05:36:14.334Z,4.20
2019-05-05T05:38:17.870Z,4.30
2019-05-05T05:40:30.845Z,4.30
2019-05-05T05:42:34.852Z,4.40
2019-05-05T05:44:56.234Z,4.50
2019-05-05T05:47:14.763Z,4.60
2019-05-05T05:49:24.146Z,4.60
2019-05-05T05:51:28.138Z,4.70
2019-05-05T05:53:31.959Z,4.80
2019-05-05T05:55:35.911Z,4.80
2019-05-05T05:57:39.786Z,4.90
2019-05-05T05:59:44.461Z,5.00
2019-05-05T06:01:48.490Z,5.10
2019-05-05T06:03:53.631Z,5.20
2019-05-05T06:05:57.642Z,5.30
2019-05-05T06:08:01.489Z,5.40
2019-05-05T06:10:05.671Z,5.50
2019-05-05T06:12:09.513Z,5.50
2019-05-05T06:14:14.557Z,5.60
2019-05-05T06:16:18.719Z,5.60
2019-05-05T06:18:24.390Z,5.80
2019-05-05T06:20:29.371Z,5.90
2019-05-05T06:22:34.417Z,5.90
2019-05-05T06:24:38.418Z,6.00
2019-05-05T06:26:44.469Z,6.10
2019-05-05T06:28:47.955Z,6.20
2019-05-05T06:30:54.415Z,6.20
2019-05-05T06:32:57.604Z,6.20
2019-05-05T06:35:03.552Z,6.40
2019-05-05T06:37:07.147Z,6.40
2019-05-05T06:39:10.979Z,6.50
2019-05-05T06:41:24.684Z,6.60
2019-05-05T06:43:47.657Z,6.60
2019-05-05T06:45:54.832Z,6.60
2019-05-05T06:47:58.676Z,6.70
2019-05-05T06:50:03.694Z,6.80
2019-05-05T06:52:07.729Z,6.70
2019-05-05T06:54:13.621Z,6.70
2019-05-05T06:56:17.388Z,6.70
2019-05-05T06:58:21.313Z,6.80
2019-05-05T07:00:25.295Z,6.90
2019-05-05T07:02:29.317Z,6.90
2019-05-05T07:04:33.987Z,6.80
2019-05-05T07:06:50.992Z,6.80
2019-05-05T07:08:44.052Z,6.90
2019-05-05T07:10:48.030Z,7.00
2019-05-05T07:12:51.955Z,7.10
2019-05-05T07:14:55.894Z,7.20
2019-05-05T07:16:59.770Z,7.20
2019-05-05T07:19:04.411Z,7.20
2019-05-05T07:21:08.653Z,7.10
2019-05-05T07:23:14.542Z,7.20
2019-05-05T07:25:21.326Z,7.20
2019-05-05T07:27:25.591Z,7.30
2019-05-05T07:29:29.531Z,7.40
2019-05-05T07:31:34.595Z,7.40
2019-05-05T07:33:38.495Z,7.60
2019-05-05T07:35:56.915Z,7.70
2019-05-05T07:37:55.932Z,7.80
2019-05-05T07:39:59.781Z,7.80
2019-05-05T07:42:05.211Z,7.80
2019-05-05T07:44:22.298Z,7.90
2019-05-05T07:46:14.627Z,7.90
2019-05-05T07:48:18.709Z,8.00
2019-05-05T07:50:31.276Z,8.00
2019-05-05T07:52:28.218Z,7.90
2019-05-05T07:54:34.086Z,8.00
2019-05-05T07:56:37.640Z,8.10
2019-05-05T07:58:43.783Z,8.10
2019-05-05T08:00:47.780Z,8.20
2019-05-05T08:02:51.612Z,8.40
2019-05-05T08:04:55.463Z,8.50
2019-05-05T08:06:59.605Z,8.40
2019-05-05T08:09:05.403Z,8.30
2019-05-05T08:11:09.291Z,8.40
2019-05-05T08:13:14.057Z,8.40
2019-05-05T08:15:20.032Z,8.60
2019-05-05T08:17:44.754Z,8.60
2019-05-05T08:19:54.340Z,8.70
2019-05-05T08:21:58.269Z,8.60
2019-05-05T08:24:10.800Z,8.60
2019-05-05T08:26:36.650Z,8.50
2019-05-05T08:28:58.663Z,8.30
2019-05-05T08:31:11.677Z,8.40
2019-05-05T08:33:15.683Z,8.70
2019-05-05T08:35:19.732Z,9.00
2019-05-05T08:37:23.708Z,9.10
2019-05-05T08:39:27.955Z,9.00
2019-05-05T08:41:33.721Z,9.20
2019-05-05T08:43:37.399Z,9.30
2019-05-05T08:45:41.359Z,9.20
2019-05-05T08:47:45.183Z,9.00
2019-05-05T08:49:49.087Z,8.80
2019-05-05T08:51:54.718Z,8.80
2019-05-05T08:53:58.739Z,8.80
2019-05-05T08:56:04.059Z,8.80
2019-05-05T08:58:08.164Z,9.00
2019-05-05T09:00:13.826Z,9.20
2019-05-05T09:02:17.828Z,9.40
2019-05-05T09:04:21.931Z,9.60
2019-05-05T09:06:25.755Z,9.60
2019-05-05T09:08:29.718Z,9.50
2019-05-05T09:10:34.247Z,9.30
2019-05-05T09:12:38.403Z,9.20
2019-05-05T09:14:44.746Z,9.30
2019-05-05T09:16:48.127Z,9.20
2019-05-05T09:19:04.228Z,9.20
2019-05-05T09:21:07.850Z,9.20
2019-05-05T09:23:11.800Z,9.10
2019-05-05T09:25:25.647Z,9.10
2019-05-05T09:27:53.519Z,9.30
2019-05-05T09:30:04.074Z,9.20
2019-05-05T09:32:08.118Z,9.30
2019-05-05T09:34:12.019Z,9.30
2019-05-05T09:36:15.945Z,9.60
2019-05-05T09:38:20.257Z,9.70
2019-05-05T09:40:35.743Z,9.90
2019-05-05T09:42:39.727Z,10.00
2019-05-05T09:44:43.925Z,10.10
2019-05-05T09:46:47.920Z,10.10
2019-05-05T09:48:54.014Z,9.90
2019-05-05T09:50:57.455Z,9.80
2019-05-05T09:53:01.479Z,9.90
2019-05-05T09:55:05.915Z,10.10
2019-05-05T09:57:09.795Z,10.20
2019-05-05T09:59:13.686Z,10.20
2019-05-05T10:01:17.703Z,10.20
2019-05-05T10:03:21.545Z,10.40
2019-05-05T10:05:25.441Z,10.50
2019-05-05T10:07:29.291Z,10.60
2019-05-05T10:09:36.247Z,10.40
2019-05-05T10:11:40.331Z,10.70
2019-05-05T10:13:44.350Z,10.90
2019-05-05T10:15:48.368Z,10.80
2019-05-05T10:17:54.164Z,10.30
2019-05-05T10:19:58.096Z,9.80
2019-05-05T10:22:03.901Z,9.60
2019-05-05T10:24:27.407Z,9.30
2019-05-05T10:26:20.276Z,9.20
2019-05-05T10:28:24.183Z,9.30
2019-05-05T10:30:28.377Z,9.30
2019-05-05T10:32:32.380Z,9.20
2019-05-05T10:34:36.308Z,9.30
2019-05-05T10:36:40.135Z,9.50
2019-05-05T10:38:47.493Z,9.70
2019-05-05T10:40:53.606Z,9.80
2019-05-05T10:42:57.053Z,10.00
2019-05-05T10:45:04.345Z,9.90
2019-05-05T10:47:08.105Z,10.00
2019-05-05T10:49:13.731Z,10.00
2019-05-05T10:51:17.680Z,10.10
2019-05-05T10:53:21.511Z,10.20
2019-05-05T10:55:25.443Z,10.50
2019-05-05T10:57:29.448Z,10.60
2019-05-05T10:59:34.342Z,10.60
2019-05-05T11:01:38.605Z,10.70
2019-05-05T11:03:44.563Z,10.50
2019-05-05T11:05:48.347Z,10.70
2019-05-05T11:07:53.735Z,10.70
2019-05-05T11:09:57.943Z,10.80
2019-05-05T11:12:01.843Z,10.80
2019-05-05T11:14:06.079Z,10.90
2019-05-05T11:16:10.103Z,11.00
2019-05-05T11:18:15.015Z,11.10
2019-05-05T11:20:19.303Z,11.10
2019-05-05T11:22:24.209Z,10.90
2019-05-05T11:24:28.342Z,10.80
2019-05-05T11:26:33.956Z,10.70
2019-05-05T11:28:37.938Z,10.40
2019-05-05T11:30:43.680Z,10.40
2019-05-05T11:33:05.496Z,10.30
2019-05-05T11:35:09.400Z,10.20
2019-05-05T11:37:16.383Z,10.20
2019-05-05T11:39:20.311Z,10.30
2019-05-05T11:41:24.390Z,10.50
2019-05-05T11:43:28.213Z,10.60
2019-05-05T11:45:34.323Z,10.80
2019-05-05T11:47:37.991Z,11.00
2019-05-05T11:49:43.670Z,11.00
2019-05-05T11:51:47.495Z,11.00
2019-05-05T11:53:51.400Z,11.00
2019-05-05T11:55:55.368Z,11.20
2019-05-05T11:57:59.323Z,11.40
2019-05-05T12:00:03.899Z,11.40
2019-05-05T12:02:08.155Z,11.60
2019-05-05T12:04:14.571Z,11.90
2019-05-05T12:06:18.578Z,12.50
2019-05-05T12:08:23.867Z,13.40
2019-05-05T12:11:04.479Z,12.60
2019-05-05T12:13:09.505Z,12.20
2019-05-05T12:15:13.567Z,11.90
2019-05-05T12:17:34.071Z,11.80
2019-05-05T12:19:37.981Z,11.70
2019-05-05T12:21:44.064Z,11.80
2019-05-05T12:23:47.672Z,12.20
2019-05-05T12:26:01.228Z,12.20
2019-05-05T12:28:08.867Z,12.60
2019-05-05T12:30:14.407Z,12.80
2019-05-05T12:32:18.293Z,12.60
2019-05-05T12:34:23.671Z,12.50
2019-05-05T12:36:27.638Z,12.30
2019-05-05T12:38:31.563Z,12.50
2019-05-05T12:40:35.459Z,13.30
2019-05-05T12:42:39.400Z,14.20
2019-05-05T12:44:57.894Z,14.40
2019-05-05T12:47:14.339Z,14.40
2019-05-05T12:49:18.116Z,13.60
2019-05-05T12:51:23.603Z,12.60
2019-05-05T12:53:27.547Z,12.20
2019-05-05T12:55:39.085Z,12.60
2019-05-05T12:57:37.083Z,12.80
2019-05-05T12:59:41.032Z,13.20
2019-05-05T13:01:45.097Z,12.70
2019-05-05T13:03:49.046Z,12.40
2019-05-05T13:05:53.587Z,12.50
2019-05-05T13:07:57.697Z,12.20
2019-05-05T13:10:01.888Z,12.70
2019-05-05T13:12:05.871Z,13.30
2019-05-05T13:14:09.875Z,13.80
2019-05-05T13:16:13.974Z,14.00
2019-05-05T13:18:18.116Z,14.60
2019-05-05T13:20:36.923Z,14.30
2019-05-05T13:22:53.885Z,13.80
2019-05-05T13:25:13.929Z,13.60
2019-05-05T13:27:24.699Z,13.60
2019-05-05T13:29:27.963Z,14.00
2019-05-05T13:31:33.629Z,13.70
2019-05-05T13:33:37.471Z,14.20
2019-05-05T13:35:41.439Z,13.70
2019-05-05T13:37:45.288Z,13.60
2019-05-05T13:39:49.360Z,13.60
2019-05-05T13:41:53.985Z,13.10
2019-05-05T13:43:59.351Z,13.00
2019-05-05T13:46:24.571Z,13.60
2019-05-05T13:48:28.024Z,14.20
2019-05-05T13:50:43.321Z,13.60
2019-05-05T13:52:47.425Z,13.40
2019-05-05T13:54:51.415Z,14.20
2019-05-05T13:56:55.440Z,14.20
2019-05-05T13:58:59.423Z,14.00
2019-05-05T14:01:03.866Z,14.30
2019-05-05T14:03:07.936Z,13.60
2019-05-05T14:05:13.436Z,13.30
2019-05-05T14:07:17.460Z,12.70
2019-05-05T14:09:21.517Z,13.00
2019-05-05T14:11:25.498Z,13.80
2019-05-05T14:13:29.485Z,13.70
2019-05-05T14:15:34.144Z,13.00
2019-05-05T14:17:40.604Z,13.10
2019-05-05T14:19:44.584Z,12.70
2019-05-05T14:21:48.659Z,12.50
2019-05-05T14:24:03.793Z,12.30
2019-05-05T14:26:07.890Z,12.40
2019-05-05T14:28:14.020Z,12.00
2019-05-05T14:30:44.379Z,11.60
2019-05-05T14:32:48.307Z,12.40
2019-05-05T14:34:58.215Z,13.50
2019-05-05T14:37:20.070Z,13.70
2019-05-05T14:39:24.130Z,13.70
2019-05-05T14:41:28.119Z,14.20
2019-05-05T14:43:31.992Z,13.40
2019-05-05T14:45:36.056Z,13.50
2019-05-05T14:47:39.979Z,13.10
2019-05-05T14:49:44.398Z,13.10
2019-05-05T14:51:48.515Z,12.90
2019-05-05T14:53:54.286Z,13.50
2019-05-05T14:55:58.104Z,14.10
2019-05-05T14:58:03.795Z,14.30
2019-05-05T15:00:10.497Z,14.50
2019-05-05T15:02:14.516Z,13.30
2019-05-05T15:04:20.148Z,12.80
2019-05-05T15:06:49.023Z,13.20
2019-05-05T15:08:59.136Z,13.20
2019-05-05T15:11:08.723Z,13.80
2019-05-05T15:13:14.750Z,14.10
2019-05-05T15:15:20.207Z,13.10
2019-05-05T15:17:24.637Z,12.10
2019-05-05T15:19:28.747Z,11.90
2019-05-05T15:21:33.976Z,11.50
2019-05-05T15:23:38.184Z,11.60
2019-05-05T15:25:42.099Z,11.80
2019-05-05T15:27:46.206Z,11.90
2019-05-05T15:29:50.189Z,12.30
2019-05-05T15:31:54.122Z,12.60
2019-05-05T15:33:58.040Z,13.40
2019-05-05T15:36:01.950Z,12.70
2019-05-05T15:38:05.927Z,12.20
2019-05-05T15:40:10.252Z,11.70
2019-05-05T15:42:14.242Z,11.60
2019-05-05T15:44:18.121Z,11.10
2019-05-05T15:46:24.266Z,10.60
2019-05-05T15:48:28.063Z,10.50
2019-05-05T15:50:31.990Z,10.20
2019-05-05T15:52:36.158Z,10.20
2019-05-05T15:54:40.019Z,10.10
2019-05-05T15:56:44.052Z,10.20
2019-05-05T15:58:47.987Z,10.00
2019-05-05T16:00:53.838Z,9.90
2019-05-05T16:02:57.963Z,9.90
2019-05-05T16:05:01.899Z,10.00
2019-05-05T16:07:05.925Z,10.00
2019-05-05T16:09:09.925Z,10.20
2019-05-05T16:11:14.286Z,10.20
2019-05-05T16:13:18.314Z,10.20
2019-05-05T16:15:44.556Z,10.40
2019-05-05T16:17:54.668Z,10.30
2019-05-05T16:20:05.472Z,10.70
2019-05-05T16:22:14.575Z,10.60
2019-05-05T16:24:20.463Z,10.60
2019-05-05T16:26:24.626Z,10.40
2019-05-05T16:28:28.983Z,10.40
2019-05-05T16:30:33.853Z,10.30
2019-05-05T16:32:38.675Z,10.30
2019-05-05T16:34:42.711Z,10.30
2019-05-05T16:36:46.709Z,10.20
2019-05-05T16:38:50.712Z,10.10
2019-05-05T16:40:54.885Z,10.10
2019-05-05T16:42:58.722Z,10.10
2019-05-05T16:45:04.475Z,10.10
2019-05-05T16:47:08.348Z,10.20
2019-05-05T16:49:14.031Z,10.10
2019-05-05T16:51:21.346Z,10.10
2019-05-05T16:53:36.147Z,10.20
2019-05-05T16:55:46.771Z,10.70
2019-05-05T16:57:50.683Z,11.20
2019-05-05T16:59:54.555Z,11.20
2019-05-05T17:01:58.632Z,11.40
2019-05-05T17:04:11.143Z,11.60
2019-05-05T17:06:08.305Z,11.60
2019-05-05T17:08:13.971Z,11.70
2019-05-05T17:10:18.226Z,11.90
2019-05-05T17:12:22.129Z,11.70
2019-05-05T17:14:34.023Z,11.50
2019-05-05T17:16:54.369Z,10.80
2019-05-05T17:19:23.123Z,10.80
2019-05-05T17:21:34.100Z,11.20
2019-05-05T17:23:38.174Z,12.00
2019-05-05T17:25:43.811Z,12.50
2019-05-05T17:27:51.106Z,12.10
2019-05-05T17:29:53.827Z,12.10
2019-05-05T17:31:57.751Z,12.00
2019-05-05T17:34:04.209Z,12.10
2019-05-05T17:36:08.281Z,12.00
2019-05-05T17:38:14.759Z,11.70
2019-05-05T17:40:54.217Z,11.40
2019-05-05T17:43:25.075Z,11.40
2019-05-05T17:45:59.447Z,11.50
2019-05-05T17:48:06.711Z,11.20
2019-05-05T17:50:20.230Z,10.50
2019-05-05T17:52:43.929Z,9.90
2019-05-05T17:54:51.127Z,9.40
2019-05-05T17:56:55.190Z,9.00
2019-05-05T17:58:59.071Z,9.10
2019-05-05T18:01:03.810Z,8.90
2019-05-05T18:03:07.819Z,8.90
2019-05-05T18:05:13.922Z,8.70
2019-05-05T18:07:25.881Z,8.60
2019-05-05T18:09:37.826Z,8.30
2019-05-05T18:11:58.734Z,8.30
2019-05-05T18:14:07.177Z,8.20
2019-05-05T18:16:11.276Z,8.10
2019-05-05T18:18:15.685Z,8.00
2019-05-05T18:20:19.675Z,8.10
2019-05-05T18:22:24.636Z,8.10
2019-05-05T18:24:28.868Z,8.20
2019-05-05T18:26:34.125Z,8.10
2019-05-05T18:28:38.175Z,8.40
2019-05-05T18:30:44.258Z,8.30
2019-05-05T18:32:47.829Z,8.30
2019-05-05T18:34:54.542Z,8.10
2019-05-05T18:36:58.629Z,8.10
2019-05-05T18:39:04.350Z,8.10
2019-05-05T18:41:14.009Z,8.00
2019-05-05T18:43:27.304Z,8.00
2019-05-05T18:45:31.196Z,8.00
2019-05-05T18:47:35.348Z,8.00
2019-05-05T18:49:39.350Z,8.00
2019-05-05T18:51:43.924Z,8.10
2019-05-05T18:53:49.212Z,8.00
2019-05-05T18:55:53.965Z,7.90
2019-05-05T18:57:58.034Z,7.80
2019-05-05T19:00:03.769Z,7.90
2019-05-05T19:02:36.396Z,7.80
2019-05-05T19:04:48.712Z,7.70
2019-05-05T19:07:06.648Z,7.80
2019-05-05T19:09:13.596Z,7.80
2019-05-05T19:11:17.491Z,7.80
2019-05-05T19:13:21.475Z,7.80
2019-05-05T19:15:25.460Z,7.80
2019-05-05T19:17:29.559Z,7.60
2019-05-05T19:19:34.546Z,7.70
2019-05-05T19:21:40.774Z,7.70
2019-05-05T19:23:44.837Z,7.60
2019-05-05T19:25:48.800Z,7.50
2019-05-05T19:27:53.672Z,7.50
2019-05-05T19:29:58.293Z,7.50
2019-05-05T19:32:03.973Z,7.50
2019-05-05T19:34:07.872Z,7.40
2019-05-05T19:36:11.768Z,7.40
2019-05-05T19:38:15.875Z,7.40
2019-05-05T19:40:19.936Z,7.30
2019-05-05T19:42:24.013Z,7.20
2019-05-05T19:44:28.116Z,7.20
2019-05-05T19:46:38.070Z,7.20
2019-05-05T19:48:41.891Z,7.20
2019-05-05T19:50:54.083Z,7.20
2019-05-05T19:52:57.685Z,7.20
2019-05-05T19:55:01.555Z,7.20
2019-05-05T19:57:06.134Z,7.20
2019-05-05T19:59:10.029Z,7.20
2019-05-05T20:01:13.856Z,7.20
2019-05-05T20:03:17.893Z,7.00
2019-05-05T20:05:21.796Z,6.90
2019-05-05T20:07:25.648Z,7.10
2019-05-05T20:09:29.643Z,7.00
2019-05-05T20:11:34.041Z,6.90
2019-05-05T20:13:37.858Z,6.80
2019-05-05T20:15:57.331Z,6.90
2019-05-05T20:18:01.151Z,6.80
2019-05-05T20:20:06.560Z,6.80
2019-05-05T20:22:10.676Z,6.80
2019-05-05T20:24:14.608Z,6.80
2019-05-05T20:26:18.551Z,6.80
2019-05-05T20:28:24.044Z,6.70
2019-05-05T20:30:28.275Z,6.60
2019-05-05T20:32:56.153Z,6.70
2019-05-05T20:35:11.723Z,6.70
2019-05-05T20:37:17.767Z,6.70
2019-05-05T20:39:21.680Z,6.60
2019-05-05T20:41:25.636Z,6.60
2019-05-05T20:43:29.538Z,6.70
2019-05-05T20:45:34.791Z,6.70
2019-05-05T20:47:38.693Z,6.70
2019-05-05T20:49:44.354Z,6.60
2019-05-05T20:51:48.263Z,6.70
2019-05-05T20:53:54.213Z,6.60
2019-05-05T20:55:58.211Z,6.60
2019-05-05T20:58:04.480Z,6.50
2019-05-05T21:00:09.813Z,6.50
2019-05-05T21:02:13.790Z,6.50
2019-05-05T21:04:17.730Z,6.50
2019-05-05T21:06:21.617Z,6.40
2019-05-05T21:08:25.514Z,6.40
2019-05-05T21:10:29.367Z,6.30
2019-05-05T21:12:41.923Z,6.40
2019-05-05T21:14:40.003Z,6.30
2019-05-05T21:16:44.114Z,6.30
2019-05-05T21:18:48.104Z,6.30
2019-05-05T21:20:52.024Z,6.30
2019-05-05T21:23:07.903Z,6.20
2019-05-05T21:25:29.775Z,6.20
2019-05-05T21:27:34.087Z,6.30
2019-05-05T21:29:42.043Z,6.30
2019-05-05T21:31:43.882Z,6.20
2019-05-05T21:33:47.919Z,6.20
2019-05-05T21:35:51.755Z,6.20
2019-05-05T21:37:55.647Z,6.30
2019-05-05T21:39:59.523Z,6.30
2019-05-05T21:42:04.683Z,6.20
2019-05-05T21:44:08.889Z,6.30
2019-05-05T21:46:12.717Z,6.40
2019-05-05T21:48:16.556Z,6.30
2019-05-05T21:50:26.223Z,6.40
2019-05-05T21:52:36.469Z,6.30
2019-05-05T21:54:47.863Z,6.40
2019-05-05T21:57:10.435Z,6.40
2019-05-05T21:59:14.375Z,6.30
2019-05-05T22:01:27.379Z,6.30
2019-05-05T22:03:34.740Z,6.30
2019-05-05T22:05:38.851Z,6.40
2019-05-05T22:07:42.711Z,6.40
2019-05-05T22:09:46.632Z,6.40
2019-05-05T22:11:50.512Z,6.50
2019-05-05T22:13:54.332Z,6.50
2019-05-05T22:15:58.329Z,6.50
2019-05-05T22:18:03.686Z,6.50
2019-05-05T22:20:14.863Z,6.50
2019-05-05T22:22:20.672Z,6.60
2019-05-05T22:24:24.746Z,6.60
2019-05-05T22:26:28.760Z,6.50
2019-05-05T22:28:37.394Z,6.40
2019-05-05T22:30:41.339Z,6.20
2019-05-05T22:32:45.311Z,6.20
2019-05-05T22:34:49.457Z,6.10
2019-05-05T22:36:53.427Z,6.10
2019-05-05T22:38:57.352Z,6.00
2019-05-05T22:41:01.380Z,6.00
2019-05-05T22:43:05.349Z,5.90
2019-05-05T22:45:09.423Z,5.90
2019-05-05T22:47:13.977Z,5.90
2019-05-05T22:49:17.982Z,5.80
2019-05-05T22:51:21.961Z,5.80
2019-05-05T22:53:25.903Z,5.80
2019-05-05T22:55:29.871Z,5.80
2019-05-05T22:57:34.513Z,5.80
2019-05-05T22:59:38.655Z,5.80
2019-05-05T23:01:42.747Z,5.90
2019-05-05T23:03:57.488Z,5.90
2019-05-05T23:06:05.320Z,5.80
2019-05-05T23:08:09.689Z,5.80
2019-05-05T23:10:14.117Z,5.80
2019-05-05T23:12:18.467Z,5.80
2019-05-05T23:14:28.320Z,5.70
2019-05-05T23:16:38.743Z,5.70
2019-05-05T23:18:44.259Z,5.70
2019-05-05T23:21:20.932Z,5.70
2019-05-05T23:23:38.899Z,5.70
2019-05-05T23:25:45.758Z,5.60
2019-05-05T23:27:50.703Z,5.60
2019-05-05T23:29:55.052Z,5.60
2019-05-05T23:31:58.997Z,5.60
2019-05-05T23:34:04.007Z,5.60
2019-05-05T23:36:08.119Z,5.60
2019-05-05T23:38:11.955Z,5.60
2019-05-05T23:40:24.395Z,5.50
2019-05-05T23:42:28.931Z,5.70
2019-05-05T23:44:34.524Z,5.60
2019-05-05T23:46:38.508Z,5.50
2019-05-05T23:48:42.359Z,5.60
2019-05-05T23:50:46.323Z,5.50
2019-05-05T23:52:50.229Z,5.50
2019-05-05T23:54:54.173Z,5.40
2019-05-05T23:56:58.106Z,5.50
2019-05-05T23:59:04.051Z,5.50
